マガダン の空港の天気 - METARとTAF

マガダン・ソコル空港 ( UHMM / GDX ) - ロシア マガダン
飛行場実況気象(Metar)
観測時間06/18 06:00 MAGT (06/17 19:00 UTC)
風向・風速北東 1m/s
視程10km以上
天気現象
少しの雲 雲底高度 300m
全天の8割程度の雲 雲底高度 1400m
気温7℃
湿度100%
気圧1007hPa
METARUHMM 171900Z 05001MPS 9999 FEW010 BKN046CB 07/07 Q1007 RMK MT OBSC QFE741
過去の天気等 Google飛行場航空写真 Wunderground天気予報

過去48時間のMETAR

飛行場予報(TAF)
発表時間: 6/18 03:57 MAGT (6/17 16:57 UTC)
予報対象時間: 18日5時 MAGT ~ 19日11時 MAGT
風向・風速東南東 3m/s 瞬間風速 8m/s
視程2000m
天気現象弱いしゅう雨 もや
全天の8割程度の雲 雲底高度 340m
全天を覆う積乱雲 雲底高度 610m
18日5時 MAGT ~ 18日10時 MAGT に一時的に
視程400m
天気現象しゅう雨 霧
全天を覆う雲 鉛直視程 90m
18日11時 MAGT から
風向・風速東 4m/s 瞬間風速 12m/s
視程10km以上
全天を覆う積乱雲 雲底高度 910m
18日11時 MAGT ~ 19日11時 MAGT に一時的に
天気現象弱いしゅう雨
全天の4割程度の雲 雲底高度 340m
全天を覆う積乱雲 雲底高度 610m
TAF UHMM 171657Z 1718/1824 11003G08MPS 2000 -SHRA BR BKN011 OVC020CB
TEMPO 1718/1723 0400 SHRA FG VV003
FM180000 10004G12MPS 9999 OVC030CB
TEMPO 1800/1824 -SHRA SCT011 OVC020CB